Time;durP1;ratioP1;P1;durP2;ratioP2;P2;SDS_P1;SDS_P2;PMS_P1;PMS_P2;Temp;Humidity;BMP_temperature;BMP_pressure;BME280_temperature;BME280_humidity;BME280_pressure;Samples;Min_cycle;Max_cycle;Signal;HPM_P1;HPM_P2
2022/04/15 00:00:20;;;;;;;11.90;3.60;;;;;;;11.08;43.04;100120.56;4500549;31;33700;-71
2022/04/15 00:02:48;;;;;;;8.65;4.43;;;;;;;10.95;43.25;100120.50;4500603;31;34260;-71
2022/04/15 00:05:36;;;;;;;7.93;3.75;;;;;;;11.13;43.03;100120.81;4500526;31;34499;-72
2022/04/15 00:08:06;;;;;;;8.95;3.60;;;;;;;11.10;43.01;100116.56;4500490;31;33385;-71
2022/04/15 00:10:34;;;;;;;9.32;3.97;;;;;;;10.94;43.48;100122.41;4486394;31;33642;-71
2022/04/15 00:13:06;;;;;;;12.73;7.53;;;;;;;10.95;43.17;100107.63;4486217;31;34613;-72
2022/04/15 00:15:35;;;;;;;12.70;5.68;;;;;;;10.88;43.04;100117.72;4500324;31;34076;-72
2022/04/15 00:18:02;;;;;;;9.02;4.53;;;;;;;10.78;43.60;100108.97;4473114;31;33152;-72
2022/04/15 00:20:30;;;;;;;8.73;5.18;;;;;;;10.91;43.73;100106.34;4487234;31;33689;-72
2022/04/15 00:23:01;;;;;;;21.73;12.13;;;;;;;10.86;43.76;100108.84;4488461;31;34518;-72
2022/04/15 00:25:34;;;;;;;23.77;14.13;;;;;;;10.93;44.51;100106.13;4488354;31;34069;-72
2022/04/15 00:28:07;;;;;;;23.33;12.48;;;;;;;10.72;43.88;100096.06;4502829;31;33473;-72
2022/04/15 00:30:34;;;;;;;20.67;11.88;;;;;;;10.82;43.47;100104.78;4488860;31;33746;-72
2022/04/15 00:33:03;;;;;;;20.15;11.15;;;;;;;10.85;43.52;100105.25;4501931;31;35218;-72
2022/04/15 00:35:33;;;;;;;17.77;8.68;;;;;;;10.88;43.55;100102.09;4488227;31;32335;-72
2022/04/15 00:38:02;;;;;;;13.05;6.20;;;;;;;10.75;43.79;100102.00;4501849;31;34123;-72
2022/04/15 00:40:32;;;;;;;13.57;7.97;;;;;;;10.69;44.04;100111.03;4487808;31;33760;-72
2022/04/15 00:43:05;;;;;;;14.60;6.72;;;;;;;10.80;43.80;100098.66;4487939;31;34313;-72
2022/04/15 00:45:36;;;;;;;14.55;9.18;;;;;;;10.68;44.36;100094.75;4502665;31;34141;-71
2022/04/15 00:48:07;;;;;;;22.83;15.88;;;;;;;10.70;44.32;100099.00;4475234;31;31839;-71
2022/04/15 00:50:40;;;;;;;24.27;17.77;;;;;;;10.71;44.30;100088.88;4488627;31;33700;-72
2022/04/15 00:53:09;;;;;;;23.35;17.25;;;;;;;10.62;44.42;100095.56;4487658;31;33155;-75
2022/04/15 00:55:40;;;;;;;22.98;17.40;;;;;;;10.63;44.16;100083.53;4502303;31;34094;-72
2022/04/15 00:58:08;;;;;;;22.37;16.00;;;;;;;10.65;44.29;100084.19;4474462;31;31849;-72
2022/04/15 01:00:38;;;;;;;22.27;12.82;;;;;;;10.52;44.54;100082.19;4487718;31;33962;-71
2022/04/15 01:03:11;;;;;;;16.23;9.02;;;;;;;10.39;44.74;100087.59;4474951;31;34399;-72
2022/04/15 01:05:39;;;;;;;12.27;7.57;;;;;;;10.37;44.40;100093.28;4501569;31;34642;-72
2022/04/15 01:08:13;;;;;;;13.45;7.80;;;;;;;10.61;43.64;100083.72;4501906;31;34220;-72
2022/04/15 01:10:41;;;;;;;12.40;8.07;;;;;;;10.63;43.38;100083.53;4474366;31;32351;-72
2022/04/15 01:13:11;;;;;;;13.60;8.05;;;;;;;10.36;43.97;100077.00;4487980;31;34494;-72
2022/04/15 01:15:52;;;;;;;11.02;6.15;;;;;;;10.29;44.05;100082.44;4488878;31;34726;-72
2022/04/15 01:18:20;;;;;;;9.95;6.68;;;;;;;10.28;44.34;100068.91;4475244;31;34149;-72
2022/04/15 01:20:52;;;;;;;12.18;7.50;;;;;;;10.42;43.95;100071.53;4488373;31;34478;-72
2022/04/15 01:23:20;;;;;;;10.07;6.68;;;;;;;10.28;44.22;100072.50;4487552;31;35073;-72
2022/04/15 01:25:48;;;;;;;11.25;6.93;;;;;;;10.42;43.74;100066.06;4487569;31;34838;-72
2022/04/15 01:28:19;;;;;;;13.62;7.12;;;;;;;10.28;43.71;100067.03;4502075;31;33940;-72
2022/04/15 01:30:50;;;;;;;10.43;5.97;;;;;;;10.32;43.87;100064.72;4487724;31;33630;-72
2022/04/15 01:33:23;;;;;;;11.90;6.20;;;;;;;10.16;44.29;100058.44;4487145;31;34380;-72
2022/04/15 01:35:54;;;;;;;10.68;5.68;;;;;;;10.09;44.53;100057.53;4502125;31;34135;-72
2022/04/15 01:38:22;;;;;;;9.68;4.95;;;;;;;10.18;44.73;100061.84;4502078;31;33193;-71
2022/04/15 01:40:52;;;;;;;11.15;4.95;;;;;;;10.18;44.75;100061.84;4487697;31;32342;-71
2022/04/15 01:43:20;;;;;;;11.00;4.85;;;;;;;10.09;44.77;100063.00;4501997;31;34541;-72
2022/04/15 01:45:48;;;;;;;9.57;4.50;;;;;;;10.14;45.10;100059.69;4487095;31;33347;-72
2022/04/15 01:48:15;;;;;;;10.05;4.40;;;;;;;10.19;44.78;100069.06;4487722;31;34095;-72
2022/04/15 01:50:46;;;;;;;6.87;4.20;;;;;;;9.86;45.23;100071.44;4501412;31;34128;-72
2022/04/15 01:53:16;;;;;;;8.43;4.10;;;;;;;9.95;45.12;100074.91;4487003;31;35254;-72
2022/04/15 01:55:49;;;;;;;9.02;4.47;;;;;;;10.04;45.21;100065.50;4487357;31;34041;-72
2022/04/15 01:58:17;;;;;;;9.88;5.07;;;;;;;10.11;45.07;100066.41;4487229;31;33408;-72
2022/04/15 02:00:47;;;;;;;7.82;4.87;;;;;;;9.92;45.23;100069.81;4501617;31;33826;-72
2022/04/15 02:03:15;;;;;;;10.75;6.05;;;;;;;10.01;44.81;100065.88;4487745;31;35311;-72
2022/04/15 02:05:48;;;;;;;8.38;5.07;;;;;;;9.98;44.84;100048.97;4487511;31;34166;-72
2022/04/15 02:08:15;;;;;;;7.50;4.45;;;;;;;9.93;45.05;100049.56;4487105;31;34390;-72
2022/04/15 02:10:43;;;;;;;11.60;5.03;;;;;;;9.80;44.95;100046.69;4484223;32;33328;-72
2022/04/15 02:13:15;;;;;;;8.57;4.90;;;;;;;9.81;44.98;100051.13;4485941;32;34951;-71
2022/04/15 02:15:43;;;;;;;7.93;4.60;;;;;;;9.71;45.47;100053.38;4485748;32;34049;-72
2022/04/15 02:18:13;;;;;;;7.78;4.22;;;;;;;9.70;45.91;100054.41;4485997;32;33036;-72
2022/04/15 02:20:43;;;;;;;9.13;4.43;;;;;;;9.66;46.29;100053.94;4484835;32;32157;-72
2022/04/15 02:23:19;;;;;;;8.57;4.35;;;;;;;9.87;45.70;100053.94;4484661;32;34912;-72
2022/04/15 02:25:53;;;;;;;8.25;3.95;;;;;;;9.74;45.97;100047.50;4485887;32;34652;-72
2022/04/15 02:28:23;;;;;;;11.20;4.85;;;;;;;9.75;45.72;100057.41;4484603;32;33288;-72
2022/04/15 02:30:55;;;;;;;8.73;4.80;;;;;;;9.73;45.84;100056.75;4483788;32;33698;-72
2022/04/15 02:33:29;;;;;;;8.18;4.80;;;;;;;9.50;46.58;100045.97;4484091;32;34379;-72
2022/04/15 02:36:04;;;;;;;8.85;4.35;;;;;;;9.63;46.58;100045.28;4485790;32;33945;-72
2022/04/15 02:38:35;;;;;;;14.68;5.53;;;;;;;9.71;46.48;100037.78;4484577;32;34175;-72
2022/04/15 02:41:08;;;;;;;10.38;5.28;;;;;;;9.66;46.28;100045.72;4484725;32;34367;-72
2022/04/15 02:43:38;;;;;;;9.93;4.40;;;;;;;9.78;45.96;100046.87;4484051;32;35041;-72
2022/04/15 02:46:11;;;;;;;8.93;4.90;;;;;;;9.60;46.41;100041.03;4471832;32;32635;-71
2022/04/15 02:48:39;;;;;;;11.85;4.57;;;;;;;9.60;46.38;100042.91;4484211;32;33297;-72
2022/04/15 02:51:09;;;;;;;9.93;4.50;;;;;;;9.55;46.04;100038.88;4484140;32;33796;-72
2022/04/15 02:53:37;;;;;;;9.70;4.65;;;;;;;9.39;46.56;100038.25;4471455;32;34316;-72
2022/04/15 02:56:07;;;;;;;9.05;4.50;;;;;;;9.37;46.97;100045.81;4485650;32;34099;-71
2022/04/15 02:58:35;;;;;;;8.35;3.85;;;;;;;9.44;46.91;100039.38;4484582;32;33294;-72
2022/04/15 03:01:03;;;;;;;7.53;4.03;;;;;;;9.25;47.55;100043.56;4484764;32;33801;-72
2022/04/15 03:03:31;;;;;;;8.23;3.92;;;;;;;9.07;48.09;100045.03;4485362;32;34196;-72
2022/04/15 03:06:00;;;;;;;9.10;3.85;;;;;;;9.20;47.85;100046.03;4484563;32;34168;-72
2022/04/15 03:08:31;;;;;;;7.25;3.87;;;;;;;9.40;47.20;100038.06;4471840;32;34142;-71
2022/04/15 03:11:00;;;;;;;9.95;4.45;;;;;;;9.30;47.42;100043.00;4484146;32;33774;-72
2022/04/15 03:13:30;;;;;;;11.12;3.97;;;;;;;9.37;47.15;100045.81;4485347;32;33560;-71
2022/04/15 03:16:04;;;;;;;7.37;4.25;;;;;;;9.29;47.54;100046.75;4484334;32;33849;-71
2022/04/15 03:18:31;;;;;;;9.27;4.25;;;;;;;9.47;47.03;100047.19;4471348;32;32511;-72
2022/04/15 03:21:01;;;;;;;10.00;4.28;;;;;;;9.42;47.04;100046.09;4484209;32;32533;-72
2022/04/15 03:23:32;;;;;;;8.00;4.15;;;;;;;9.25;47.24;100051.78;4485321;32;34288;-72
2022/04/15 03:25:59;;;;;;;12.40;4.50;;;;;;;9.31;47.05;100043.84;4484086;32;33994;-71
2022/04/15 03:28:27;;;;;;;8.10;4.45;;;;;;;9.21;47.35;100044.13;4483455;32;33314;-72
2022/04/15 03:30:55;;;;;;;8.73;4.05;;;;;;;9.26;47.21;100058.09;4487311;32;34427;-71
2022/04/15 03:33:22;;;;;;;11.38;4.70;;;;;;;9.33;47.31;100049.97;4488012;32;35374;-72
2022/04/15 03:35:50;;;;;;;11.65;4.57;;;;;;;9.31;47.20;100043.84;4487603;32;33953;-72
2022/04/15 03:38:17;;;;;;;10.10;4.20;;;;;;;9.10;47.66;100044.66;4486033;32;33438;-71
2022/04/15 03:40:45;;;;;;;9.32;4.62;;;;;;;9.18;47.30;100041.78;4485392;32;34352;-72
2022/04/15 03:43:13;;;;;;;10.90;3.87;;;;;;;9.12;46.98;100042.53;4484148;32;34418;-71
2022/04/15 03:45:40;;;;;;;9.38;4.60;;;;;;;9.30;46.67;100037.50;4484959;32;33945;-72
2022/04/15 03:48:08;;;;;;;9.10;4.37;;;;;;;9.24;46.75;100030.91;4484845;32;33359;-72
2022/04/15 03:50:39;;;;;;;8.30;4.12;;;;;;;9.21;46.91;100030.44;4483709;32;33293;-72
2022/04/15 03:53:06;;;;;;;8.93;4.30;;;;;;;9.20;47.11;100028.75;4484869;32;35099;-72
2022/04/15 03:55:36;;;;;;;9.05;4.68;;;;;;;9.22;46.86;100021.19;4486375;32;34939;-72
2022/04/15 03:58:04;;;;;;;7.45;4.12;;;;;;;9.25;46.83;100021.66;4486014;32;33379;-72
2022/04/15 04:00:35;;;;;;;8.60;4.10;;;;;;;8.99;47.12;100026.81;4485980;32;33890;-71
2022/04/15 04:03:02;;;;;;;10.00;4.68;;;;;;;9.05;47.13;100026.06;4487392;32;34451;-72
2022/04/15 04:05:35;;;;;;;8.13;4.15;;;;;;;9.04;47.64;100020.78;4486942;32;34762;-72
2022/04/15 04:08:02;;;;;;;9.80;4.30;;;;;;;9.20;47.55;100015.91;4485800;32;33330;-72
2022/04/15 04:10:33;;;;;;;11.70;4.57;;;;;;;9.20;47.93;100012.31;4485304;32;33782;-71
2022/04/15 04:13:03;;;;;;;10.48;4.32;;;;;;;9.16;48.13;100022.81;4485576;32;34342;-71
2022/04/15 04:15:34;;;;;;;9.75;4.28;;;;;;;9.15;48.18;100028.47;4486676;32;33974;-72
2022/04/15 04:18:06;;;;;;;10.50;4.25;;;;;;;9.17;48.22;100029.97;4486216;32;33498;-72
2022/04/15 04:20:34;;;;;;;9.30;4.40;;;;;;;9.29;48.15;100024.84;4485633;32;33648;-71
2022/04/15 04:23:02;;;;;;;11.68;5.50;;;;;;;9.28;48.27;100025.91;4486914;32;35171;-71
2022/04/15 04:25:33;;;;;;;8.65;4.80;;;;;;;9.35;48.32;100034.19;4485352;32;33389;-71
2022/04/15 04:28:00;;;;;;;9.68;4.70;;;;;;;9.25;48.53;100032.59;4485847;32;33592;-71
2022/04/15 04:30:28;;;;;;;7.40;4.25;;;;;;;9.35;48.73;100035.03;4485676;32;33704;-70
2022/04/15 04:33:01;;;;;;;14.00;5.00;;;;;;;9.55;55.05;100025.16;4485489;32;33013;-70
2022/04/15 04:35:29;;;;;;;8.70;4.95;;;;;;;9.74;51.13;100031.06;4486664;32;34780;-71
2022/04/15 04:37:59;;;;;;;10.18;5.72;;;;;;;9.80;49.45;100030.25;4485685;32;33861;-71
2022/04/15 04:40:31;;;;;;;9.65;4.70;;;;;;;9.78;48.66;100033.19;4486947;32;33750;-71
2022/04/15 04:42:59;;;;;;;12.73;5.68;;;;;;;9.57;48.70;100042.25;4486743;32;34536;-71
2022/04/15 04:45:31;;;;;;;10.45;5.47;;;;;;;9.54;48.65;100039.91;4485563;32;34062;-71
2022/04/15 04:48:05;;;;;;;11.15;6.82;;;;;;;9.65;48.73;100038.56;4485247;32;33384;-71
2022/04/15 04:50:33;;;;;;;13.23;7.85;;;;;;;9.91;48.32;100040.69;4485004;32;34411;-71
2022/04/15 04:53:04;;;;;;;15.05;8.75;;;;;;;9.85;48.76;100041.47;4485381;32;35134;-71
2022/04/15 04:55:34;;;;;;;15.90;8.50;;;;;;;9.87;49.25;100039.38;4485306;32;34767;-71
2022/04/15 04:58:05;;;;;;;15.20;9.15;;;;;;;10.01;49.18;100046.69;4486650;32;33595;-71
2022/04/15 05:00:33;;;;;;;19.40;12.15;;;;;;;10.10;48.99;100048.25;4486455;32;33425;-71
2022/04/15 05:03:03;;;;;;;18.52;12.32;;;;;;;9.99;48.65;100048.78;4486686;32;34317;-71
2022/04/15 05:05:31;;;;;;;18.85;12.02;;;;;;;10.14;48.38;100044.06;4485132;32;35037;-72
2022/04/15 05:07:59;;;;;;;19.40;10.38;;;;;;;10.29;48.37;100045.91;4485522;32;34245;-71
2022/04/15 05:10:27;;;;;;;20.90;11.18;;;;;;;10.36;48.29;100049.56;4485209;32;33754;-72
2022/04/15 05:13:00;;;;;;;20.52;13.50;;;;;;;10.44;48.41;100043.91;4479499;32;35383;-72
2022/04/15 05:15:31;;;;;;;20.02;11.73;;;;;;;10.54;48.27;100044.41;4469666;32;34038;-72
2022/04/15 05:18:01;;;;;;;19.60;11.75;;;;;;;10.68;47.80;100051.69;4469345;32;33396;-72
2022/04/15 05:20:32;;;;;;;19.33;12.45;;;;;;;10.65;48.09;100057.56;4467249;32;33765;-71
2022/04/15 05:23:00;;;;;;;20.42;12.77;;;;;;;10.72;48.34;100063.97;4468529;32;35056;-71
2022/04/15 05:25:28;;;;;;;17.65;10.85;;;;;;;10.85;48.38;100061.31;4468983;32;34567;-71
2022/04/15 05:28:02;;;;;;;15.73;9.07;;;;;;;10.86;48.17;100053.91;4468840;32;33652;-72
2022/04/15 05:30:31;;;;;;;18.45;10.20;;;;;;;10.97;48.00;100060.75;4468674;32;34732;-71
2022/04/15 05:32:58;;;;;;;17.10;9.85;;;;;;;11.09;47.97;100064.59;4455555;32;35200;-71
2022/04/15 05:35:26;;;;;;;15.48;10.10;;;;;;;11.11;48.65;100062.47;4469175;32;33597;-71
2022/04/15 05:37:55;;;;;;;16.55;8.85;;;;;;;11.17;48.72;100056.19;4470501;32;33155;-71
2022/04/15 05:40:23;;;;;;;16.50;9.15;;;;;;;11.29;48.34;100061.94;4470513;32;33655;-71
2022/04/15 05:42:51;;;;;;;21.20;11.95;;;;;;;11.51;47.87;100056.12;4470534;32;34575;-71
2022/04/15 05:45:21;;;;;;;20.00;11.48;;;;;;;11.66;47.54;100055.13;4469324;32;34647;-71
2022/04/15 05:47:57;;;;;;;20.10;11.43;;;;;;;11.77;46.61;100047.13;4469218;32;31962;-71
2022/04/15 05:50:25;;;;;;;16.83;10.45;;;;;;;11.93;46.59;100051.38;4469223;32;33808;-71
2022/04/15 05:53:03;;;;;;;17.40;9.25;;;;;;;11.96;46.64;100047.37;4469181;32;35168;-71
2022/04/15 05:55:35;;;;;;;12.52;7.15;;;;;;;12.32;46.67;100041.47;4470409;32;33936;-71
2022/04/15 05:58:10;;;;;;;13.15;7.12;;;;;;;12.55;45.86;100044.63;4470144;32;34342;-71
2022/04/15 06:00:43;;;;;;;13.68;6.22;;;;;;;12.86;45.49;100044.78;4468887;32;34657;-71
2022/04/15 06:03:14;;;;;;;20.67;7.32;;;;;;;13.10;43.93;100048.72;4469422;32;35352;-71
2022/04/15 06:05:44;;;;;;;11.85;7.45;;;;;;;13.13;44.48;100041.94;4443275;32;33698;-71
2022/04/15 06:08:18;;;;;;;11.68;7.50;;;;;;;13.45;43.43;100045.69;4468837;32;33673;-71
2022/04/15 06:10:50;;;;;;;18.55;9.30;;;;;;;13.59;43.13;100043.72;4491748;31;33967;-71
2022/04/15 06:13:22;;;;;;;20.45;13.10;;;;;;;13.99;42.10;100045.13;4487649;31;34408;-72
2022/04/15 06:15:58;;;;;;;15.57;10.93;;;;;;;13.96;41.06;100042.81;4486158;31;33845;-71
2022/04/15 06:18:34;;;;;;;17.35;11.00;;;;;;;13.98;42.39;100045.38;4499883;31;33699;-71
2022/04/15 06:21:08;;;;;;;16.90;9.98;;;;;;;14.24;43.10;100053.47;4488123;31;33833;-71
2022/04/15 06:23:35;;;;;;;15.88;8.93;;;;;;;14.28;42.71;100056.63;4487317;31;33665;-71
2022/04/15 06:26:03;;;;;;;35.40;23.70;;;;;;;14.48;43.28;100051.78;4501393;31;34672;-72
2022/04/15 06:28:33;;;;;;;24.45;16.50;;;;;;;14.70;42.25;100044.78;4474222;31;32098;-72
2022/04/15 06:31:10;;;;;;;18.12;11.32;;;;;;;14.86;42.44;100053.56;4487294;31;33787;-70
2022/04/15 06:33:43;;;;;;;16.83;9.55;;;;;;;15.10;38.40;100047.13;4501670;31;34292;-71
2022/04/15 06:36:17;;;;;;;16.33;8.68;;;;;;;15.41;38.66;100052.50;4474449;31;33836;-72
2022/04/15 06:38:47;;;;;;;18.83;8.57;;;;;;;15.67;39.69;100044.94;4487760;31;33479;-72
2022/04/15 06:41:18;;;;;;;14.02;8.48;;;;;;;16.10;37.34;100044.75;4474281;31;32406;-72
2022/04/15 06:43:48;;;;;;;17.02;8.70;;;;;;;16.14;36.59;100040.44;4501451;31;34059;-72
2022/04/15 06:46:17;;;;;;;17.60;8.65;;;;;;;16.07;35.96;100036.94;4501451;31;34190;-72
2022/04/15 06:48:49;;;;;;;14.02;8.50;;;;;;;16.19;38.32;100036.97;4487154;31;32223;-72
2022/04/15 06:51:21;;;;;;;22.37;9.77;;;;;;;16.42;38.62;100036.97;4487127;31;33736;-72
2022/04/15 06:53:48;;;;;;;14.10;8.60;;;;;;;16.74;38.60;100024.53;4474284;31;33892;-71
2022/04/15 06:56:21;;;;;;;15.73;7.93;;;;;;;17.23;34.08;100027.00;4501390;31;33905;-72
2022/04/15 06:58:49;;;;;;;21.58;9.30;;;;;;;17.54;33.34;100023.78;4487297;31;33888;-72
2022/04/15 07:01:20;;;;;;;12.18;7.72;;;;;;;17.74;33.27;100017.78;4501415;31;34664;-72
2022/04/15 07:03:50;;;;;;;13.45;7.12;;;;;;;17.84;33.24;100020.78;4501199;31;34229;-72
2022/04/15 07:06:17;;;;;;;19.55;8.02;;;;;;;17.81;33.19;100024.03;4501294;31;33606;-70
2022/04/15 07:08:55;;;;;;;10.30;5.57;;;;;;;17.64;35.28;100021.19;4501298;31;33475;-71
2022/04/15 07:11:22;;;;;;;17.02;11.73;;;;;;;17.79;37.89;100020.66;4486931;31;33814;-72
2022/04/15 07:13:53;;;;;;;16.05;8.32;;;;;;;18.05;38.85;100024.78;4476385;32;34328;-72
2022/04/15 07:16:23;;;;;;;17.98;9.23;;;;;;;18.20;37.35;100032.56;4458589;32;33931;-72
2022/04/15 07:18:52;;;;;;;20.10;8.50;;;;;;;18.41;35.93;100029.00;4460599;32;34342;-72
2022/04/15 07:21:27;;;;;;;18.08;6.82;;;;;;;18.81;33.57;100033.59;4485164;31;33772;-72
2022/04/15 07:24:00;;;;;;;11.70;7.20;;;;;;;19.26;31.79;100028.66;4483957;32;34349;-72
2022/04/15 07:26:31;;;;;;;17.92;7.68;;;;;;;19.47;33.35;100031.72;4470695;32;32522;-72
2022/04/15 07:29:01;;;;;;;21.02;9.55;;;;;;;19.50;31.94;100036.78;4484058;31;32031;-72
2022/04/15 07:31:42;;;;;;;22.55;10.52;;;;;;;19.35;32.14;100035.47;4469893;31;32471;-72
2022/04/15 07:34:13;;;;;;;20.70;7.72;;;;;;;19.26;31.38;100036.19;4485108;31;34603;-72
2022/04/15 07:36:53;;;;;;;15.20;8.10;;;;;;;19.20;32.00;100042.75;4472559;31;32179;-72
2022/04/15 07:39:27;;;;;;;13.95;7.80;;;;;;;19.22;33.11;100035.84;4490948;31;34135;-72
2022/04/15 07:41:56;;;;;;;24.37;12.55;;;;;;;19.11;32.42;100035.97;4481018;32;32259;-72
2022/04/15 07:44:27;;;;;;;24.45;12.05;;;;;;;19.60;30.54;100036.91;4470056;32;32951;-72
2022/04/15 07:46:55;;;;;;;20.62;9.75;;;;;;;19.87;30.00;100037.78;4482315;31;34540;-72
2022/04/15 07:49:23;;;;;;;15.63;7.60;;;;;;;20.40;28.75;100041.69;4493334;31;33313;-72
2022/04/15 07:51:51;;;;;;;14.30;7.20;;;;;;;20.80;27.90;100043.94;4482073;31;33132;-72
2022/04/15 07:54:23;;;;;;;15.60;6.55;;;;;;;20.82;28.07;100055.69;4491112;31;35345;-72
2022/04/15 07:56:53;;;;;;;13.32;7.15;;;;;;;20.95;27.42;100057.19;4482168;31;33882;-72
2022/04/15 07:59:23;;;;;;;15.10;7.50;;;;;;;21.00;27.93;100058.06;4481109;31;34064;-73
2022/04/15 08:01:58;;;;;;;15.43;6.85;;;;;;;21.09;26.93;100060.34;4472483;31;32209;-72
2022/04/15 08:04:26;;;;;;;11.10;6.10;;;;;;;21.31;27.13;100061.09;4468041;32;33642;-72
2022/04/15 08:07:03;;;;;;;10.65;5.70;;;;;;;21.09;25.19;100060.34;4484330;31;33946;-72
2022/04/15 08:09:34;;;;;;;9.48;5.22;;;;;;;20.60;23.36;100066.97;4481163;31;33911;-72
2022/04/15 08:12:04;;;;;;;9.20;4.68;;;;;;;20.67;22.47;100059.22;4490809;31;34503;-72
2022/04/15 08:14:35;;;;;;;9.65;4.90;;;;;;;20.75;23.04;100057.06;4497050;31;34329;-72
2022/04/15 08:17:03;;;;;;;10.13;5.12;;;;;;;20.95;23.12;100065.53;4481735;31;34001;-71
2022/04/15 08:19:43;;;;;;;11.77;5.30;;;;;;;20.90;23.98;100063.56;4481536;31;32997;-72
2022/04/15 08:22:13;;;;;;;11.10;5.70;;;;;;;20.82;24.14;100063.22;4469693;32;33727;-73
2022/04/15 08:24:47;;;;;;;13.25;6.10;;;;;;;20.96;24.57;100053.28;4469893;32;35001;-72
2022/04/15 08:27:14;;;;;;;12.55;6.05;;;;;;;20.64;23.45;100053.34;4484442;32;33762;-72
2022/04/15 08:29:42;;;;;;;9.77;5.70;;;;;;;21.21;23.15;100050.69;4484017;32;33979;-73
2022/04/15 08:32:10;;;;;;;9.65;5.65;;;;;;;21.73;23.14;100048.97;4470121;31;32801;-73
2022/04/15 08:34:42;;;;;;;10.65;5.62;;;;;;;21.45;21.72;100055.84;4485391;31;34248;-72
2022/04/15 08:37:12;;;;;;;10.18;5.47;;;;;;;21.67;22.96;100064.88;4459697;32;32488;-73
2022/04/15 08:39:42;;;;;;;10.85;6.05;;;;;;;21.60;21.85;100061.47;4456709;32;31461;-72
2022/04/15 08:42:20;;;;;;;12.70;6.35;;;;;;;21.09;23.01;100060.34;4471805;32;33897;-72
2022/04/15 08:44:54;;;;;;;9.40;5.90;;;;;;;21.61;22.54;100052.84;4459616;32;35150;-72
2022/04/15 08:47:22;;;;;;;11.18;5.82;;;;;;;21.88;22.40;100044.28;4472344;32;34333;-72
2022/04/15 08:49:55;;;;;;;11.07;6.55;;;;;;;21.96;22.67;100040.94;4471050;32;33483;-72
2022/04/15 08:52:29;;;;;;;10.60;6.10;;;;;;;21.80;22.35;100043.97;4472044;32;33668;-72
2022/04/15 08:54:59;;;;;;;12.60;6.57;;;;;;;21.58;22.66;100044.16;4485990;32;34602;-72
2022/04/15 08:57:32;;;;;;;12.55;6.95;;;;;;;21.66;23.24;100041.69;4485977;32;34008;-72
2022/04/15 09:00:00;;;;;;;13.07;7.10;;;;;;;22.00;22.51;100036.50;4485860;32;33265;-72
2022/04/15 09:02:38;;;;;;;12.98;6.87;;;;;;;22.18;22.72;100040.72;4468732;32;104198;-72
2022/04/15 09:05:13;;;;;;;13.07;8.18;;;;;;;22.43;22.77;100048.31;4486190;32;34215;-72
2022/04/15 09:07:41;;;;;;;14.75;8.18;;;;;;;22.44;22.31;100049.16;4471858;32;33857;-72
2022/04/15 09:10:10;;;;;;;15.88;7.82;;;;;;;22.54;22.32;100043.56;4472029;32;34104;-72
2022/04/15 09:12:40;;;;;;;14.65;8.25;;;;;;;22.84;22.45;100037.97;4464781;31;33319;-71
2022/04/15 09:15:11;;;;;;;17.55;7.93;;;;;;;23.22;22.25;100032.88;4487326;31;34297;-73
2022/04/15 09:17:52;;;;;;;13.35;7.50;;;;;;;23.03;22.00;100024.25;4489374;31;33967;-74
2022/04/15 09:20:25;;;;;;;10.70;6.97;;;;;;;23.08;22.64;100027.03;4484099;32;32975;-73
2022/04/15 09:22:56;;;;;;;11.88;6.95;;;;;;;23.05;22.20;100027.59;4485779;32;33751;-72
2022/04/15 09:25:28;;;;;;;13.65;6.85;;;;;;;22.88;21.86;100021.47;4471597;32;35591;-72
2022/04/15 09:27:56;;;;;;;11.60;5.80;;;;;;;22.51;24.13;100019.78;4471608;32;32337;-72
2022/04/15 09:30:35;;;;;;;12.63;6.07;;;;;;;22.79;21.88;100023.16;4480960;32;33021;-72
2022/04/15 09:33:03;;;;;;;12.48;5.28;;;;;;;22.54;22.30;100030.44;4471494;32;33769;-72
2022/04/15 09:35:32;;;;;;;12.40;5.50;;;;;;;22.56;22.90;100030.16;4471493;32;35728;-74
2022/04/15 09:38:03;;;;;;;8.45;5.25;;;;;;;22.22;22.67;100024.25;4471397;32;33917;-74
2022/04/15 09:40:38;;;;;;;11.25;5.57;;;;;;;22.22;22.86;100029.84;4459217;32;33021;-74
2022/04/15 09:43:08;;;;;;;10.05;5.45;;;;;;;21.91;23.75;100035.34;4461904;31;33746;-74
2022/04/15 09:45:37;;;;;;;11.63;5.68;;;;;;;21.54;24.06;100029.91;4487736;31;35172;-73
2022/04/15 09:48:06;;;;;;;12.55;5.80;;;;;;;21.33;24.59;100034.56;4469869;32;32871;-74
2022/04/15 09:50:38;;;;;;;10.93;5.65;;;;;;;21.39;24.76;100032.66;4486090;32;33376;-73
2022/04/15 09:53:19;;;;;;;10.32;5.57;;;;;;;21.56;24.87;100030.47;4471006;32;34338;-73
2022/04/15 09:55:50;;;;;;;12.20;6.18;;;;;;;21.43;24.48;100024.56;4446049;32;33867;-74
2022/04/15 09:58:31;;;;;;;11.35;6.05;;;;;;;20.98;25.16;100024.00;4476941;31;34017;-73
2022/04/15 10:01:02;;;;;;;11.20;5.40;;;;;;;21.53;24.77;100016.22;4488104;31;33987;-73
2022/04/15 10:03:35;;;;;;;11.75;5.50;;;;;;;20.87;23.75;100024.19;4474345;31;32369;-74
2022/04/15 10:06:07;;;;;;;12.57;4.85;;;;;;;20.75;24.51;100021.62;4487724;31;35120;-74
2022/04/15 10:09:02;;;;;;;10.10;4.75;;;;;;;20.86;24.26;100003.81;4489846;31;33917;-73
2022/04/15 10:11:35;;;;;;;11.25;5.43;;;;;;;21.26;23.89;100003.25;4487719;31;34151;-74
2022/04/15 10:14:04;;;;;;;9.15;5.18;;;;;;;21.14;23.69;99999.81;4474487;31;32527;-74
2022/04/15 10:16:35;;;;;;;8.93;4.80;;;;;;;21.25;23.76;100006.31;4474380;31;34764;-74
2022/04/15 10:19:03;;;;;;;11.65;5.22;;;;;;;21.15;23.39;100006.25;4474424;31;32702;-74
2022/04/15 10:21:32;;;;;;;12.73;4.45;;;;;;;21.55;24.01;100011.19;4501761;31;33914;-73
2022/04/15 10:24:03;;;;;;;11.68;4.43;;;;;;;21.57;23.53;100009.81;4474408;31;34511;-71
2022/04/15 10:26:56;;;;;;;11.90;3.80;;;;;;;21.89;27.62;100014.38;4474473;31;32888;-72
2022/04/15 10:29:24;;;;;;;6.75;3.70;;;;;;;22.45;23.02;100006.09;4474370;31;34034;-72
2022/04/15 10:31:54;;;;;;;10.43;4.62;;;;;;;22.84;21.48;100011.94;4501588;31;33987;-73
2022/04/15 10:34:25;;;;;;;9.82;4.53;;;;;;;22.86;20.39;100018.94;4487397;31;33651;-72
2022/04/15 10:36:56;;;;;;;12.05;5.05;;;;;;;23.11;21.06;100008.81;4487600;31;34391;-72
2022/04/15 10:39:27;;;;;;;14.20;5.35;;;;;;;23.57;25.49;100013.16;4488001;31;33905;-72
2022/04/15 10:42:05;;;;;;;9.65;4.90;;;;;;;23.67;22.51;100028.25;4474592;31;31881;-72
2022/04/15 10:44:39;;;;;;;7.85;3.90;;;;;;;23.70;19.86;100022.91;4476855;32;32272;-72
2022/04/15 10:47:17;;;;;;;14.23;5.72;;;;;;;23.72;20.51;100031.88;4471906;32;35415;-73
2022/04/15 10:50:06;;;;;;;13.13;5.32;;;;;;;23.27;27.04;100025.31;4458548;32;33749;-75
2022/04/15 10:52:35;;;;;;;11.98;5.18;;;;;;;23.14;23.47;100020.28;4459221;32;33379;-75
2022/04/15 10:55:10;;;;;;;9.05;4.72;;;;;;;23.10;25.40;100022.00;4471497;32;33605;-74
2022/04/15 10:57:40;;;;;;;9.85;4.72;;;;;;;23.27;24.18;100022.50;4445688;32;33927;-75
2022/04/15 11:03:23;;;;;;;8.60;4.75;;;;;;;23.21;22.62;100017.19;4460454;32;32679;-75
2022/04/15 11:05:51;;;;;;;8.90;4.93;;;;;;;22.88;22.06;100019.50;4458582;32;33191;-74
2022/04/15 11:08:23;;;;;;;8.15;4.40;;;;;;;22.75;22.94;100020.03;4485659;32;35362;-75
2022/04/15 11:11:03;;;;;;;11.55;4.62;;;;;;;22.82;22.83;100017.00;4471297;32;34884;-75
2022/04/15 11:13:40;;;;;;;10.63;5.03;;;;;;;22.64;22.57;100013.63;4471581;32;33245;-75
2022/04/15 11:16:16;;;;;;;9.45;4.80;;;;;;;22.97;22.63;100015.00;4471025;32;32143;-75
2022/04/15 11:18:55;;;;;;;9.45;4.95;;;;;;;22.23;23.42;100014.72;4472042;32;35220;-74
2022/04/15 11:21:30;;;;;;;9.45;5.20;;;;;;;22.20;23.78;100026.47;4458626;32;33393;-75
2022/04/15 11:24:06;;;;;;;11.55;5.97;;;;;;;22.53;23.76;100030.69;4458574;32;32707;-75
2022/04/15 11:26:35;;;;;;;15.57;6.00;;;;;;;22.33;24.30;100034.31;4445276;32;32203;-75
2022/04/15 11:29:09;;;;;;;13.70;6.53;;;;;;;22.13;24.80;100037.09;4458694;32;34783;-75
2022/04/15 11:31:38;;;;;;;10.48;6.28;;;;;;;21.99;25.11;100043.19;4485082;32;33863;-75
2022/04/15 11:34:08;;;;;;;11.80;6.75;;;;;;;21.73;25.10;100030.25;4458295;32;31641;-73
2022/04/15 11:36:44;;;;;;;14.70;7.20;;;;;;;21.39;25.81;100037.37;4470973;32;33962;-73
2022/04/15 11:39:16;;;;;;;18.77;7.15;;;;;;;21.67;25.92;100050.91;4457448;32;32976;-73